createdAt,value
2018-12-30T00:03:20.298Z,20.27
2018-12-30T00:08:27.374Z,22.83
2018-12-30T00:13:33.905Z,21.00
2018-12-30T00:18:39.125Z,10.60
2018-12-30T00:23:44.297Z,10.13
2018-12-30T00:28:49.091Z,2.70
2018-12-30T00:33:55.511Z,14.60
2018-12-30T00:39:01.506Z,3.30
2018-12-30T00:44:06.843Z,29.30
2018-12-30T00:49:11.889Z,15.30
2018-12-30T00:54:17.888Z,15.13
2018-12-30T00:59:23.990Z,11.87
2018-12-30T01:04:30.136Z,14.60
2018-12-30T01:09:36.362Z,19.53
2018-12-30T01:14:41.809Z,7.70
2018-12-30T01:19:47.826Z,14.90
2018-12-30T01:24:52.951Z,9.70
2018-12-30T01:29:57.805Z,11.20
2018-12-30T01:35:04.153Z,16.57
2018-12-30T01:40:10.508Z,5.33
2018-12-30T01:45:15.709Z,11.90
2018-12-30T01:50:20.829Z,11.77
2018-12-30T01:55:26.019Z,16.20
2018-12-30T02:00:30.859Z,13.63
2018-12-30T02:05:36.958Z,14.43
2018-12-30T02:10:43.045Z,6.93
2018-12-30T02:15:48.974Z,15.57
2018-12-30T02:20:55.132Z,14.07
2018-12-30T02:26:00.110Z,20.43
2018-12-30T02:31:05.013Z,15.43
2018-12-30T02:36:10.674Z,7.33
2018-12-30T02:41:16.714Z,8.60
2018-12-30T02:46:23.025Z,13.60
2018-12-30T02:51:29.474Z,22.93
2018-12-30T02:56:35.285Z,24.50
2018-12-30T03:01:41.034Z,25.50
2018-12-30T03:06:45.989Z,25.17
2018-12-30T03:11:50.769Z,19.77
2018-12-30T03:16:56.304Z,21.63
2018-12-30T03:22:02.728Z,24.00
2018-12-30T03:27:07.483Z,22.43
2018-12-30T03:32:12.115Z,20.27
2018-12-30T03:37:17.033Z,24.03
2018-12-30T03:42:21.870Z,22.07
2018-12-30T03:47:26.696Z,21.80
2018-12-30T03:52:31.681Z,28.43
2018-12-30T03:57:36.869Z,22.60
2018-12-30T04:02:41.937Z,23.70
2018-12-30T04:07:47.019Z,20.77
2018-12-30T04:12:51.864Z,15.67
2018-12-30T04:17:56.739Z,12.03
2018-12-30T04:23:01.441Z,18.30
2018-12-30T04:28:06.337Z,20.70
2018-12-30T04:33:11.005Z,19.90
2018-12-30T04:38:16.079Z,12.80
2018-12-30T04:43:21.303Z,14.50
2018-12-30T04:48:26.492Z,22.03
2018-12-30T04:53:32.538Z,13.47
2018-12-30T04:58:37.626Z,19.97
2018-12-30T05:03:42.305Z,16.47
2018-12-30T05:08:47.069Z,7.63
2018-12-30T05:13:51.890Z,13.00
2018-12-30T05:18:56.674Z,19.77
2018-12-30T05:24:01.724Z,16.87
2018-12-30T05:29:06.487Z,20.47
2018-12-30T05:34:11.630Z,20.90
2018-12-30T05:39:16.458Z,22.13
2018-12-30T05:44:21.326Z,21.40
2018-12-30T05:49:26.239Z,17.90
2018-12-30T05:54:31.082Z,17.47
2018-12-30T05:59:37.379Z,17.00
2018-12-30T06:04:42.094Z,20.93
2018-12-30T06:09:47.003Z,17.00
2018-12-30T06:14:53.172Z,16.73
2018-12-30T06:19:58.007Z,15.07
2018-12-30T06:25:02.549Z,20.97
2018-12-30T06:30:07.537Z,13.40
2018-12-30T06:35:12.415Z,15.90
2018-12-30T06:40:17.511Z,18.30
2018-12-30T06:45:22.364Z,20.87
2018-12-30T06:50:27.404Z,17.77
2018-12-30T06:55:32.292Z,19.63
2018-12-30T07:00:37.024Z,12.97
2018-12-30T07:05:42.130Z,13.57
2018-12-30T07:10:46.931Z,16.67
2018-12-30T07:15:51.969Z,13.83
2018-12-30T07:20:57.002Z,17.00
2018-12-30T07:26:02.313Z,11.33
2018-12-30T07:31:07.356Z,14.13
2018-12-30T07:36:12.339Z,19.07
2018-12-30T07:41:17.177Z,14.83
2018-12-30T07:46:21.865Z,13.63
2018-12-30T07:51:27.124Z,11.60
2018-12-30T07:56:31.925Z,15.07
2018-12-30T08:01:36.931Z,14.60
2018-12-30T08:06:41.941Z,15.73
2018-12-30T08:11:48.383Z,15.73
2018-12-30T08:16:53.130Z,15.27
2018-12-30T08:21:57.884Z,10.83
2018-12-30T08:27:02.840Z,13.67
2018-12-30T08:32:07.704Z,16.03
2018-12-30T08:37:12.647Z,17.13
2018-12-30T08:42:17.453Z,16.60
2018-12-30T08:47:22.225Z,14.70
2018-12-30T08:52:27.309Z,13.77
2018-12-30T08:57:32.319Z,16.53
2018-12-30T09:02:37.453Z,13.77
2018-12-30T09:07:42.066Z,15.00
2018-12-30T09:12:47.145Z,11.67
2018-12-30T09:17:52.494Z,13.43
2018-12-30T09:22:57.331Z,9.07
2018-12-30T09:28:02.764Z,9.07
2018-12-30T09:33:07.636Z,10.10
2018-12-30T09:38:12.653Z,11.07
2018-12-30T09:43:17.603Z,9.50
2018-12-30T09:48:22.433Z,13.50
2018-12-30T09:53:27.137Z,9.57
2018-12-30T09:58:32.116Z,10.23
2018-12-30T10:03:37.215Z,11.17
2018-12-30T10:08:42.245Z,7.40
2018-12-30T10:13:46.995Z,8.87
2018-12-30T10:18:51.887Z,8.50
2018-12-30T10:23:57.765Z,9.50
2018-12-30T10:29:02.693Z,8.30
2018-12-30T10:34:07.552Z,5.90
2018-12-30T10:39:12.227Z,10.93
2018-12-30T10:44:17.149Z,13.83
2018-12-30T10:49:22.529Z,10.40
2018-12-30T10:54:28.228Z,7.53
2018-12-30T10:59:32.993Z,3.80
2018-12-30T11:04:38.063Z,6.83
2018-12-30T11:09:42.769Z,7.50
2018-12-30T11:14:47.515Z,7.37
2018-12-30T11:19:52.758Z,6.00
2018-12-30T11:24:57.701Z,9.10
2018-12-30T11:30:03.256Z,7.23
2018-12-30T11:35:08.534Z,8.00
2018-12-30T11:40:13.606Z,8.20
2018-12-30T11:45:18.478Z,7.73
2018-12-30T11:50:23.305Z,6.50
2018-12-30T11:55:28.196Z,7.90
2018-12-30T12:00:33.039Z,10.07
2018-12-30T12:05:37.870Z,5.40
2018-12-30T12:10:43.025Z,8.40
2018-12-30T12:15:47.875Z,3.53
2018-12-30T12:20:53.202Z,8.83
2018-12-30T12:25:58.437Z,5.97
2018-12-30T12:31:03.547Z,6.30
2018-12-30T12:36:08.652Z,10.77
2018-12-30T12:41:13.725Z,8.17
2018-12-30T12:46:18.880Z,11.77
2018-12-30T12:51:23.665Z,3.97
2018-12-30T12:56:28.585Z,10.03
2018-12-30T13:01:33.596Z,11.40
2018-12-30T13:06:38.412Z,15.43
2018-12-30T13:11:43.407Z,17.60
2018-12-30T13:16:48.378Z,13.33
2018-12-30T13:21:53.423Z,10.93
2018-12-30T13:26:58.398Z,14.53
2018-12-30T13:32:03.168Z,11.97
2018-12-30T13:37:08.557Z,8.70
2018-12-30T13:42:13.473Z,13.53
2018-12-30T13:47:18.253Z,11.67
2018-12-30T13:52:23.373Z,15.67
2018-12-30T13:57:28.235Z,15.50
2018-12-30T14:02:33.165Z,14.33
2018-12-30T14:07:38.109Z,17.47
2018-12-30T14:12:44.229Z,14.80
2018-12-30T14:17:48.988Z,12.73
2018-12-30T14:22:55.121Z,12.97
2018-12-30T14:27:59.969Z,16.53
2018-12-30T14:33:04.814Z,15.67
2018-12-30T14:38:09.721Z,14.17
2018-12-30T14:43:14.920Z,21.73
2018-12-30T14:48:19.700Z,18.30
2018-12-30T14:53:24.568Z,15.10
2018-12-30T14:58:29.365Z,20.80
2018-12-30T15:03:34.323Z,21.00
2018-12-30T15:08:39.075Z,20.70
2018-12-30T15:13:43.886Z,14.90
2018-12-30T15:18:49.478Z,13.30
2018-12-30T15:23:54.520Z,17.97
2018-12-30T15:28:59.484Z,21.97
2018-12-30T15:34:04.308Z,15.80
2018-12-30T15:39:09.369Z,17.87
2018-12-30T15:44:14.407Z,16.43
2018-12-30T15:49:19.338Z,12.10
2018-12-30T15:54:24.145Z,14.70
2018-12-30T15:59:28.973Z,14.00
2018-12-30T16:04:33.704Z,16.17
2018-12-30T16:09:39.033Z,16.50
2018-12-30T16:14:44.577Z,14.67
2018-12-30T16:19:49.924Z,13.80
2018-12-30T16:24:54.800Z,14.87
2018-12-30T16:29:59.633Z,16.37
2018-12-30T16:35:04.392Z,12.27
2018-12-30T16:40:09.477Z,17.77
2018-12-30T16:45:14.963Z,20.87
2018-12-30T16:50:21.293Z,19.60
2018-12-30T16:55:26.914Z,19.10
2018-12-30T17:00:31.805Z,17.67
2018-12-30T17:05:36.849Z,16.77
2018-12-30T17:10:41.683Z,16.03
2018-12-30T17:15:46.351Z,16.93
2018-12-30T17:20:51.135Z,22.93
2018-12-30T17:25:56.238Z,16.90
2018-12-30T17:31:02.153Z,11.70
2018-12-30T17:36:07.141Z,24.00
2018-12-30T17:41:11.950Z,18.47
2018-12-30T17:46:18.694Z,18.83
2018-12-30T17:51:23.948Z,15.30
2018-12-30T17:56:28.819Z,30.00
2018-12-30T18:01:33.858Z,17.93
2018-12-30T18:06:38.948Z,21.30
2018-12-30T18:11:43.866Z,17.07
2018-12-30T18:16:48.758Z,18.97
2018-12-30T18:21:53.617Z,19.57
2018-12-30T18:26:58.767Z,18.47
2018-12-30T18:32:03.538Z,18.60
2018-12-30T18:37:08.387Z,17.53
2018-12-30T18:42:14.626Z,18.30
2018-12-30T18:47:19.649Z,15.53
2018-12-30T18:52:24.739Z,17.47
2018-12-30T18:57:29.563Z,17.83
2018-12-30T19:02:34.362Z,20.07
2018-12-30T19:07:39.193Z,17.13
2018-12-30T19:12:43.937Z,17.67
2018-12-30T19:17:48.649Z,19.27
2018-12-30T19:22:53.430Z,17.30
2018-12-30T19:27:58.363Z,15.97
2018-12-30T19:33:03.453Z,14.93
2018-12-30T19:38:08.532Z,21.33
2018-12-30T19:43:13.292Z,20.97
2018-12-30T19:48:18.202Z,16.67
2018-12-30T19:53:22.977Z,17.03
2018-12-30T19:58:27.775Z,18.27
2018-12-30T20:03:32.715Z,21.37
2018-12-30T20:08:38.304Z,20.70
2018-12-30T20:13:43.731Z,17.47
2018-12-30T20:18:48.589Z,20.00
2018-12-30T20:23:53.497Z,17.00
2018-12-30T20:28:58.445Z,17.27
2018-12-30T20:34:03.227Z,14.93
2018-12-30T20:39:07.986Z,15.23
2018-12-30T20:44:12.696Z,17.30
2018-12-30T20:49:17.498Z,15.57
2018-12-30T20:54:22.223Z,19.50
2018-12-30T20:59:27.091Z,19.37
2018-12-30T21:04:31.891Z,19.07
2018-12-30T21:09:36.768Z,21.37
2018-12-30T21:14:41.980Z,15.50
2018-12-30T21:19:46.950Z,17.40
2018-12-30T21:24:52.185Z,21.57
2018-12-30T21:29:57.471Z,18.13
2018-12-30T21:35:02.427Z,20.37
2018-12-30T21:40:08.648Z,15.30
2018-12-30T21:45:13.573Z,16.50
2018-12-30T21:50:18.672Z,19.33
2018-12-30T21:55:23.527Z,14.83
2018-12-30T22:00:28.533Z,18.77
2018-12-30T22:05:33.269Z,16.50
2018-12-30T22:10:39.839Z,15.30
2018-12-30T22:15:44.890Z,16.27
2018-12-30T22:20:49.957Z,19.23
2018-12-30T22:25:54.986Z,16.40
2018-12-30T22:30:59.981Z,19.53
2018-12-30T22:36:05.062Z,17.17
2018-12-30T22:41:09.817Z,17.93
2018-12-30T22:46:14.784Z,21.27
2018-12-30T22:51:20.025Z,23.43
2018-12-30T22:56:24.787Z,22.80
2018-12-30T23:01:29.962Z,19.70
2018-12-30T23:06:36.071Z,19.63
2018-12-30T23:11:40.981Z,16.93
2018-12-30T23:16:45.996Z,17.70
2018-12-30T23:21:50.862Z,21.10
2018-12-30T23:26:55.720Z,21.40
2018-12-30T23:32:00.575Z,23.80
2018-12-30T23:37:06.730Z,17.50
2018-12-30T23:42:11.829Z,15.97
2018-12-30T23:47:16.677Z,23.83
2018-12-30T23:52:21.967Z,16.77
2018-12-30T23:57:26.838Z,14.00
